createdAt,value
2023-05-11T00:02:26.187Z,3.61
2023-05-11T00:04:54.408Z,3.54
2023-05-11T00:07:21.461Z,3.52
2023-05-11T00:09:48.525Z,3.46
2023-05-11T00:12:15.541Z,3.42
2023-05-11T00:14:42.742Z,3.39
2023-05-11T00:17:10.897Z,3.38
2023-05-11T00:19:38.258Z,3.37
2023-05-11T00:22:05.240Z,3.39
2023-05-11T00:24:32.374Z,3.39
2023-05-11T00:26:59.319Z,3.37
2023-05-11T00:29:26.466Z,3.35
2023-05-11T00:31:53.429Z,3.33
2023-05-11T00:34:20.655Z,3.31
2023-05-11T00:36:47.814Z,3.24
2023-05-11T00:39:15.094Z,3.16
2023-05-11T00:41:41.922Z,3.10
2023-05-11T00:44:09.248Z,3.04
2023-05-11T00:46:36.555Z,2.97
2023-05-11T00:49:03.827Z,2.88
2023-05-11T00:51:32.881Z,2.80
2023-05-11T00:54:01.133Z,2.71
2023-05-11T00:56:28.364Z,2.63
2023-05-11T00:58:55.609Z,2.57
2023-05-11T01:01:22.712Z,2.53
2023-05-11T01:03:50.201Z,2.46
2023-05-11T01:06:32.414Z,2.40
2023-05-11T01:09:06.662Z,2.36
2023-05-11T01:11:48.341Z,2.28
2023-05-11T01:14:23.361Z,2.25
2023-05-11T01:16:56.008Z,2.24
2023-05-11T01:19:32.330Z,2.21
2023-05-11T01:22:00.105Z,2.21
2023-05-11T01:24:42.419Z,2.18
2023-05-11T01:27:18.225Z,2.13
2023-05-11T01:30:04.832Z,2.11
2023-05-11T01:32:35.846Z,2.07
2023-05-11T01:35:12.350Z,2.03
2023-05-11T01:37:45.851Z,1.98
2023-05-11T01:40:17.287Z,1.92
2023-05-11T01:43:01.415Z,1.87
2023-05-11T01:45:31.767Z,1.89
2023-05-11T01:48:03.057Z,1.88
2023-05-11T01:50:32.781Z,1.85
2023-05-11T01:53:02.961Z,1.84
2023-05-11T01:55:32.312Z,1.83
2023-05-11T01:58:00.927Z,1.77
2023-05-11T02:00:28.567Z,1.73
2023-05-11T02:02:57.809Z,1.69
2023-05-11T02:05:25.295Z,1.64
2023-05-11T02:07:54.460Z,1.59
2023-05-11T02:10:25.797Z,1.54
2023-05-11T02:12:54.539Z,1.52
2023-05-11T02:15:22.823Z,1.53
2023-05-11T02:17:51.374Z,1.52
2023-05-11T02:20:20.318Z,1.47
2023-05-11T02:22:49.122Z,1.40
2023-05-11T02:25:17.246Z,1.35
2023-05-11T02:27:44.298Z,1.28
2023-05-11T02:30:12.953Z,1.21
2023-05-11T02:32:47.718Z,1.12
2023-05-11T02:35:18.707Z,1.08
2023-05-11T02:37:48.357Z,1.04
2023-05-11T02:43:13.255Z,1.04
2023-05-11T02:45:43.116Z,0.95
2023-05-11T02:48:14.095Z,0.92
2023-05-11T02:50:43.006Z,0.87
2023-05-11T02:53:16.500Z,0.85
2023-05-11T02:55:44.252Z,0.85
2023-05-11T02:58:11.654Z,0.82
2023-05-11T03:00:39.772Z,0.81
2023-05-11T03:03:06.966Z,0.81
2023-05-11T03:05:34.243Z,0.80
2023-05-11T03:08:01.741Z,0.81
2023-05-11T03:10:29.670Z,0.84
2023-05-11T03:12:56.836Z,0.85
2023-05-11T03:15:24.496Z,0.88
2023-05-11T03:17:52.391Z,0.92
2023-05-11T03:20:22.349Z,0.96
2023-05-11T03:22:49.871Z,0.99
2023-05-11T03:25:17.743Z,1.04
2023-05-11T03:27:46.835Z,1.07
2023-05-11T03:30:15.932Z,1.12
2023-05-11T03:32:43.102Z,1.18
2023-05-11T03:35:10.533Z,1.26
2023-05-11T03:37:39.036Z,1.36
2023-05-11T03:40:08.220Z,1.49
2023-05-11T03:42:37.616Z,1.57
2023-05-11T03:45:07.886Z,1.65
2023-05-11T03:47:36.124Z,1.71
2023-05-11T03:50:04.425Z,1.74
2023-05-11T03:52:32.512Z,1.81
2023-05-11T03:54:59.785Z,1.91
2023-05-11T03:57:27.836Z,1.97
2023-05-11T03:59:54.983Z,2.00
2023-05-11T04:02:24.586Z,2.10
2023-05-11T04:04:54.818Z,2.20
2023-05-11T04:07:21.967Z,2.32
2023-05-11T04:09:49.083Z,2.47
2023-05-11T04:12:15.951Z,2.63
2023-05-11T04:14:43.263Z,2.77
2023-05-11T04:17:10.284Z,2.96
2023-05-11T04:19:37.374Z,3.16
2023-05-11T04:22:04.209Z,3.48
2023-05-11T04:24:31.344Z,3.89
2023-05-11T04:26:58.229Z,4.37
2023-05-11T04:29:25.666Z,4.91
2023-05-11T04:31:52.532Z,5.45
2023-05-11T04:34:19.734Z,5.86
2023-05-11T04:36:50.924Z,6.19
2023-05-11T04:39:18.158Z,6.48
2023-05-11T04:41:45.391Z,6.74
2023-05-11T04:44:12.727Z,6.95
2023-05-11T04:46:39.639Z,7.19
2023-05-11T04:49:07.092Z,7.36
2023-05-11T04:51:33.984Z,7.46
2023-05-11T04:54:01.134Z,7.54
2023-05-11T04:56:27.996Z,7.62
2023-05-11T04:58:55.148Z,7.75
2023-05-11T05:01:22.099Z,7.88
2023-05-11T05:03:49.906Z,7.98
2023-05-11T05:06:16.884Z,8.13
2023-05-11T05:08:44.014Z,8.55
2023-05-11T05:11:11.174Z,9.13
2023-05-11T05:13:38.340Z,9.83
2023-05-11T05:16:05.480Z,10.55
2023-05-11T05:18:32.909Z,11.25
2023-05-11T05:20:59.899Z,11.91
2023-05-11T05:23:27.029Z,12.10
2023-05-11T05:25:54.079Z,12.00
2023-05-11T05:28:21.225Z,11.88
2023-05-11T05:30:48.135Z,12.33
2023-05-11T05:33:15.334Z,12.89
2023-05-11T05:35:43.960Z,13.58
2023-05-11T05:38:11.304Z,14.33
2023-05-11T05:40:39.585Z,15.14
2023-05-11T05:43:06.944Z,15.77
2023-05-11T05:45:33.767Z,16.32
2023-05-11T05:48:01.104Z,16.07
2023-05-11T05:50:28.386Z,16.24
2023-05-11T05:52:55.821Z,16.41
2023-05-11T05:55:22.709Z,16.89
2023-05-11T05:57:50.235Z,17.07
2023-05-11T06:00:17.753Z,17.39
2023-05-11T06:02:45.139Z,17.70
2023-05-11T06:05:12.063Z,17.86
2023-05-11T06:07:39.259Z,18.05
2023-05-11T06:10:06.641Z,17.88
2023-05-11T06:12:33.936Z,17.37
2023-05-11T06:15:01.010Z,16.71
2023-05-11T06:17:28.680Z,16.71
2023-05-11T06:19:55.812Z,17.02
2023-05-11T06:22:23.007Z,17.16
2023-05-11T06:24:50.128Z,17.80
2023-05-11T06:27:18.383Z,18.48
2023-05-11T06:29:45.750Z,19.33
2023-05-11T06:32:12.896Z,20.05
2023-05-11T06:34:39.838Z,20.40
2023-05-11T06:37:07.488Z,19.76
2023-05-11T06:39:37.806Z,19.91
2023-05-11T06:42:06.807Z,19.42
2023-05-11T06:44:34.375Z,18.61
2023-05-11T06:47:01.593Z,18.08
2023-05-11T06:49:28.851Z,17.94
2023-05-11T06:51:55.989Z,17.96
2023-05-11T06:54:22.945Z,18.32
2023-05-11T06:56:50.134Z,18.46
2023-05-11T06:59:17.246Z,18.26
2023-05-11T07:01:44.775Z,18.17
2023-05-11T07:04:11.767Z,18.32
2023-05-11T07:06:38.983Z,18.43
2023-05-11T07:09:05.925Z,18.61
2023-05-11T07:11:33.055Z,18.98
2023-05-11T07:13:59.890Z,19.05
2023-05-11T07:16:27.241Z,19.01
2023-05-11T07:18:54.229Z,18.75
2023-05-11T07:21:24.537Z,19.18
2023-05-11T07:23:51.442Z,19.75
2023-05-11T07:26:18.601Z,20.13
2023-05-11T07:28:45.506Z,20.41
2023-05-11T07:33:39.675Z,20.77
2023-05-11T07:36:07.566Z,21.25
2023-05-11T07:38:34.514Z,20.89
2023-05-11T07:41:01.788Z,20.40
2023-05-11T07:43:28.698Z,19.89
2023-05-11T07:45:55.953Z,19.88
2023-05-11T07:48:22.985Z,20.12
2023-05-11T07:50:50.172Z,20.40
2023-05-11T07:53:17.203Z,20.83
2023-05-11T07:55:44.461Z,21.42
2023-05-11T07:58:11.340Z,22.09
2023-05-11T08:00:38.550Z,22.31
2023-05-11T08:03:06.536Z,22.32
2023-05-11T08:05:37.484Z,22.47
2023-05-11T08:08:05.239Z,22.38
2023-05-11T08:10:32.481Z,21.75
2023-05-11T08:12:59.494Z,21.44
2023-05-11T08:15:27.042Z,21.15
2023-05-11T08:17:54.039Z,21.28
2023-05-11T08:20:21.303Z,21.54
2023-05-11T08:22:48.208Z,21.77
2023-05-11T08:25:15.478Z,22.19
2023-05-11T08:27:42.424Z,22.29
2023-05-11T08:30:11.784Z,21.43
2023-05-11T08:32:54.590Z,20.74
2023-05-11T08:35:24.800Z,21.05
2023-05-11T08:37:51.749Z,21.33
2023-05-11T08:40:21.755Z,21.71
2023-05-11T08:42:52.740Z,22.19
2023-05-11T08:45:21.300Z,21.93
2023-05-11T08:47:49.130Z,22.23
2023-05-11T08:50:16.541Z,22.77
2023-05-11T08:52:43.473Z,23.12
2023-05-11T08:55:11.169Z,23.28
2023-05-11T08:57:40.441Z,23.42
2023-05-11T09:00:08.638Z,23.34
2023-05-11T09:02:35.998Z,23.79
2023-05-11T09:05:04.474Z,24.17
2023-05-11T09:07:33.490Z,24.24
2023-05-11T09:10:01.518Z,24.02
2023-05-11T09:12:28.627Z,23.62
2023-05-11T09:15:01.864Z,23.90
2023-05-11T09:17:29.260Z,24.43
2023-05-11T09:20:01.595Z,24.45
2023-05-11T09:22:30.568Z,24.07
2023-05-11T09:25:01.893Z,23.75
2023-05-11T09:27:28.809Z,23.67
2023-05-11T09:29:56.017Z,23.84
2023-05-11T09:32:22.922Z,24.20
2023-05-11T09:34:50.380Z,24.96
2023-05-11T09:37:19.012Z,25.26
2023-05-11T09:40:13.996Z,25.22
2023-05-11T09:42:33.027Z,25.50
2023-05-11T09:45:00.192Z,25.86
2023-05-11T09:47:27.687Z,25.67
2023-05-11T09:49:54.913Z,25.83
2023-05-11T09:52:21.796Z,25.79
2023-05-11T09:54:51.935Z,24.69
2023-05-11T09:57:29.931Z,23.77
2023-05-11T09:59:59.060Z,23.95
2023-05-11T10:02:28.236Z,24.37
2023-05-11T10:05:00.477Z,25.09
2023-05-11T10:07:30.231Z,25.76
2023-05-11T10:09:59.606Z,26.60
2023-05-11T10:12:27.481Z,26.75
2023-05-11T10:15:02.899Z,26.48
2023-05-11T10:17:33.232Z,25.66
2023-05-11T10:20:01.954Z,24.45
2023-05-11T10:22:30.260Z,24.46
2023-05-11T10:24:58.776Z,25.00
2023-05-11T10:27:27.145Z,25.54
2023-05-11T10:29:54.589Z,25.44
2023-05-11T10:32:22.694Z,25.18
2023-05-11T10:34:52.876Z,24.22
2023-05-11T10:37:21.444Z,23.71
2023-05-11T10:39:50.646Z,23.72
2023-05-11T10:42:37.440Z,23.47
2023-05-11T10:45:25.532Z,23.65
2023-05-11T10:48:17.056Z,22.83
2023-05-11T10:51:18.068Z,22.03
2023-05-11T10:54:09.123Z,21.93
2023-05-11T10:57:07.197Z,22.10
2023-05-11T10:59:53.926Z,22.61
2023-05-11T11:02:21.821Z,23.69
2023-05-11T11:04:51.888Z,24.49
2023-05-11T11:07:20.181Z,24.73
2023-05-11T11:10:07.308Z,24.03
2023-05-11T11:12:35.255Z,24.18
2023-05-11T11:15:05.490Z,24.35
2023-05-11T11:17:35.196Z,24.67
2023-05-11T11:20:07.678Z,25.17
2023-05-11T11:22:34.979Z,25.63
2023-05-11T11:25:05.245Z,25.23
2023-05-11T11:27:41.974Z,24.10
2023-05-11T11:30:18.864Z,23.18
2023-05-11T11:32:48.398Z,22.46
2023-05-11T11:35:40.142Z,21.92
2023-05-11T11:38:14.653Z,21.54
2023-05-11T11:40:51.197Z,21.35
2023-05-11T11:43:27.044Z,21.59
2023-05-11T11:46:01.135Z,21.56
2023-05-11T11:48:42.476Z,21.77
2023-05-11T11:51:11.233Z,21.66
2023-05-11T11:53:38.589Z,21.41
2023-05-11T11:56:08.008Z,21.11
2023-05-11T11:58:41.419Z,21.43
2023-05-11T12:01:10.194Z,21.93
2023-05-11T12:03:37.833Z,22.05
2023-05-11T12:06:08.121Z,22.39
2023-05-11T12:08:36.785Z,22.24
2023-05-11T12:11:04.730Z,22.05
2023-05-11T12:13:32.818Z,21.97
2023-05-11T12:16:15.808Z,21.86
2023-05-11T12:18:52.826Z,21.74
2023-05-11T12:21:23.856Z,21.37
2023-05-11T12:23:59.200Z,21.11
2023-05-11T12:26:27.391Z,21.00
2023-05-11T12:29:09.247Z,20.73
2023-05-11T12:31:40.954Z,20.77
2023-05-11T12:34:15.530Z,20.74
2023-05-11T12:36:43.327Z,20.79
2023-05-11T12:39:17.856Z,20.68
2023-05-11T12:41:45.272Z,20.33
2023-05-11T12:44:14.577Z,20.09
2023-05-11T12:46:41.895Z,19.93
2023-05-11T12:49:10.193Z,19.75
2023-05-11T12:51:42.805Z,19.64
2023-05-11T12:54:10.233Z,19.64
2023-05-11T12:56:48.139Z,19.80
2023-05-11T12:59:30.486Z,20.18
2023-05-11T13:02:20.622Z,20.23
2023-05-11T13:04:48.881Z,19.84
2023-05-11T13:07:25.022Z,19.64
2023-05-11T13:10:00.227Z,19.47
2023-05-11T13:12:30.247Z,19.42
2023-05-11T13:15:13.351Z,19.22
2023-05-11T13:17:42.366Z,19.01
2023-05-11T13:20:27.675Z,19.04
2023-05-11T13:23:15.520Z,19.09
2023-05-11T13:25:45.435Z,19.24
2023-05-11T13:28:14.517Z,19.41
2023-05-11T13:30:42.302Z,19.56
2023-05-11T13:33:09.616Z,19.88
2023-05-11T13:35:41.385Z,20.09
2023-05-11T13:38:09.049Z,20.27
2023-05-11T13:40:36.783Z,20.28
2023-05-11T13:43:03.861Z,20.25
2023-05-11T13:45:31.123Z,20.28
2023-05-11T13:47:58.102Z,20.10
2023-05-11T13:50:26.552Z,19.69
2023-05-11T13:52:54.110Z,19.27
2023-05-11T13:55:22.011Z,19.07
2023-05-11T13:57:49.329Z,19.05
2023-05-11T14:00:16.944Z,18.89
2023-05-11T14:02:44.978Z,18.87
2023-05-11T14:05:12.246Z,18.74
2023-05-11T14:07:47.867Z,18.70
2023-05-11T14:10:19.741Z,18.74
2023-05-11T14:12:46.834Z,18.80
2023-05-11T14:15:14.144Z,18.93
2023-05-11T14:17:43.153Z,19.02
2023-05-11T14:20:12.927Z,18.88
2023-05-11T14:22:41.684Z,18.82
2023-05-11T14:25:09.075Z,18.83
2023-05-11T14:27:36.357Z,18.83
2023-05-11T14:30:03.753Z,18.92
2023-05-11T14:32:30.742Z,19.05
2023-05-11T14:34:57.988Z,19.06
2023-05-11T14:37:24.909Z,19.07
2023-05-11T14:39:52.098Z,19.09
2023-05-11T14:42:19.179Z,19.09
2023-05-11T14:44:46.453Z,19.13
2023-05-11T14:47:13.360Z,19.14
2023-05-11T14:49:40.524Z,18.90
2023-05-11T14:52:07.352Z,18.80
2023-05-11T14:54:35.167Z,18.88
2023-05-11T14:57:02.041Z,18.85
2023-05-11T14:59:29.239Z,18.71
2023-05-11T15:01:56.117Z,18.40
2023-05-11T15:04:23.356Z,18.32
2023-05-11T15:06:50.467Z,18.37
2023-05-11T15:09:17.644Z,18.45
2023-05-11T15:11:44.523Z,18.49
2023-05-11T15:14:11.907Z,18.43
2023-05-11T15:16:38.889Z,18.37
2023-05-11T15:19:06.508Z,18.32
2023-05-11T15:21:33.555Z,18.27
2023-05-11T15:24:00.945Z,18.29
2023-05-11T15:26:27.848Z,18.26
2023-05-11T15:28:55.066Z,18.22
2023-05-11T15:31:22.603Z,18.20
2023-05-11T15:33:50.017Z,18.20
2023-05-11T15:36:16.987Z,18.21
2023-05-11T15:38:44.156Z,18.20
2023-05-11T15:41:11.021Z,18.10
2023-05-11T15:43:38.148Z,18.00
2023-05-11T15:46:05.806Z,18.00
2023-05-11T15:48:33.360Z,17.96
2023-05-11T15:51:01.337Z,17.92
2023-05-11T15:53:28.884Z,17.83
2023-05-11T15:55:56.900Z,17.79
2023-05-11T15:58:24.300Z,17.77
2023-05-11T16:00:51.411Z,17.77
2023-05-11T16:03:20.021Z,17.74
2023-05-11T16:05:47.441Z,17.72
2023-05-11T16:08:14.730Z,17.70
2023-05-11T16:10:41.665Z,17.66
2023-05-11T16:13:09.815Z,17.58
2023-05-11T16:15:36.854Z,17.52
2023-05-11T16:18:05.293Z,17.46
2023-05-11T16:20:32.496Z,17.44
2023-05-11T16:22:59.817Z,17.42
2023-05-11T16:25:26.908Z,17.39
2023-05-11T16:27:54.075Z,17.32
2023-05-11T16:30:24.157Z,17.20
2023-05-11T16:32:52.014Z,17.20
2023-05-11T16:35:19.324Z,17.15
2023-05-11T16:37:48.006Z,17.11
2023-05-11T16:40:19.198Z,17.08
2023-05-11T16:42:47.608Z,17.03
2023-05-11T16:45:16.571Z,16.96
2023-05-11T16:47:45.571Z,16.89
2023-05-11T16:50:16.601Z,16.78
2023-05-11T16:52:43.677Z,16.79
2023-05-11T16:55:11.929Z,16.73
2023-05-11T16:57:38.836Z,16.69
2023-05-11T17:00:07.022Z,16.60
2023-05-11T17:02:34.088Z,16.55
2023-05-11T17:05:02.075Z,16.50
2023-05-11T17:07:28.958Z,16.44
2023-05-11T17:09:57.321Z,16.38
2023-05-11T17:12:24.408Z,16.29
2023-05-11T17:14:51.705Z,16.21
2023-05-11T17:17:18.557Z,16.16
2023-05-11T17:19:45.692Z,16.10
2023-05-11T17:34:28.021Z,15.61
2023-05-11T17:36:56.026Z,15.53
2023-05-11T17:39:23.179Z,15.44
2023-05-11T17:41:50.189Z,15.34
2023-05-11T17:44:17.437Z,15.24
2023-05-11T17:46:44.390Z,15.14
2023-05-11T17:49:11.669Z,15.04
2023-05-11T17:51:38.609Z,14.91
2023-05-11T17:54:05.833Z,14.79
2023-05-11T17:56:32.897Z,14.68
2023-05-11T17:59:00.130Z,14.57
2023-05-11T18:01:27.764Z,14.47
2023-05-11T18:03:55.192Z,14.37
2023-05-11T18:06:22.199Z,14.26
2023-05-11T18:08:49.460Z,14.16
2023-05-11T18:11:16.475Z,14.01
2023-05-11T18:13:43.644Z,13.91
2023-05-11T18:16:10.460Z,13.79
2023-05-11T18:18:37.901Z,13.68
2023-05-11T18:21:06.264Z,13.57
2023-05-11T18:23:33.812Z,13.50
2023-05-11T18:26:00.823Z,13.44
2023-05-11T18:28:28.308Z,13.34
2023-05-11T18:30:55.618Z,13.27
2023-05-11T18:33:23.127Z,13.16
2023-05-11T18:35:53.270Z,13.06
2023-05-11T18:38:20.537Z,12.97
2023-05-11T18:40:47.819Z,12.87
2023-05-11T18:43:15.062Z,12.76
2023-05-11T18:45:43.147Z,12.68
2023-05-11T18:48:10.350Z,12.57
2023-05-11T18:50:37.323Z,12.45
2023-05-11T18:53:04.499Z,12.34
2023-05-11T18:55:38.136Z,12.24
2023-05-11T18:58:12.835Z,12.10
2023-05-11T19:00:40.594Z,12.02
2023-05-11T19:03:08.259Z,11.99
2023-05-11T19:05:35.137Z,11.94
2023-05-11T19:08:02.311Z,11.90
2023-05-11T19:10:29.172Z,11.83
2023-05-11T19:12:56.451Z,11.75
2023-05-11T19:15:23.276Z,11.68
2023-05-11T19:17:50.534Z,11.58
2023-05-11T19:20:17.858Z,11.49
2023-05-11T19:22:45.117Z,11.38
2023-05-11T19:25:12.017Z,11.29
2023-05-11T19:27:39.862Z,11.20
2023-05-11T19:30:09.508Z,11.11
2023-05-11T19:32:36.838Z,11.07
2023-05-11T19:35:04.631Z,11.03
2023-05-11T19:37:31.948Z,10.98
2023-05-11T19:40:11.492Z,10.95
2023-05-11T19:42:46.121Z,10.95
2023-05-11T19:45:15.002Z,10.98
2023-05-11T19:47:42.171Z,11.01
2023-05-11T19:50:09.347Z,11.06
2023-05-11T19:52:36.807Z,11.10
2023-05-11T19:55:04.404Z,11.14
2023-05-11T19:57:37.141Z,11.16
2023-05-11T20:00:06.310Z,11.18
2023-05-11T20:02:33.730Z,11.13
2023-05-11T20:05:00.703Z,11.17
2023-05-11T20:07:28.016Z,11.22
2023-05-11T20:09:55.122Z,11.21
2023-05-11T20:12:22.370Z,11.21
2023-05-11T20:14:49.462Z,11.27
2023-05-11T20:17:16.625Z,11.29
2023-05-11T20:19:43.458Z,11.27
2023-05-11T20:22:10.663Z,11.32
2023-05-11T20:24:37.625Z,11.34
2023-05-11T20:27:09.544Z,11.31
2023-05-11T20:29:38.891Z,11.32
2023-05-11T20:32:06.856Z,11.28
2023-05-11T20:34:33.876Z,11.26
2023-05-11T20:37:01.130Z,11.15
2023-05-11T20:39:28.427Z,11.13
2023-05-11T20:41:58.849Z,11.09
2023-05-11T20:44:26.294Z,11.03
2023-05-11T20:46:53.485Z,10.93
2023-05-11T20:49:37.580Z,10.84
2023-05-11T20:52:06.781Z,10.75
2023-05-11T20:54:36.780Z,10.67
2023-05-11T20:57:04.494Z,10.56
2023-05-11T21:02:02.594Z,10.33
2023-05-11T21:04:31.331Z,10.22
2023-05-11T21:06:58.560Z,10.11
2023-05-11T21:09:25.630Z,10.00
2023-05-11T21:11:52.887Z,9.88
2023-05-11T21:14:20.346Z,9.81
2023-05-11T21:16:48.000Z,9.70
2023-05-11T21:19:18.584Z,9.60
2023-05-11T21:21:48.615Z,9.48
2023-05-11T21:24:16.263Z,9.42
2023-05-11T21:26:43.949Z,9.32
2023-05-11T21:29:13.158Z,9.27
2023-05-11T21:31:40.355Z,9.21
2023-05-11T21:34:07.179Z,9.12
2023-05-11T21:36:34.401Z,9.07
2023-05-11T21:39:01.329Z,8.95
2023-05-11T21:41:28.487Z,8.87
2023-05-11T21:43:55.383Z,8.84
2023-05-11T21:46:22.623Z,8.84
2023-05-11T21:48:49.495Z,8.87
2023-05-11T21:51:16.685Z,8.86
2023-05-11T21:53:43.513Z,8.83
2023-05-11T21:56:10.668Z,8.70
2023-05-11T21:58:37.877Z,8.59
2023-05-11T22:01:05.030Z,8.52
2023-05-11T22:03:32.290Z,8.48
2023-05-11T22:05:59.564Z,8.40
2023-05-11T22:08:26.585Z,8.26
2023-05-11T22:10:53.828Z,8.19
2023-05-11T22:13:21.709Z,8.13
2023-05-11T22:15:48.853Z,8.09
2023-05-11T22:18:15.834Z,8.07
2023-05-11T22:20:43.358Z,8.05
2023-05-11T22:23:10.189Z,8.00
2023-05-11T22:25:37.290Z,7.97
2023-05-11T22:28:04.970Z,7.90
2023-05-11T22:30:32.169Z,7.87
2023-05-11T22:32:59.119Z,7.86
2023-05-11T22:35:26.625Z,7.89
2023-05-11T22:37:54.303Z,7.98
2023-05-11T22:40:21.588Z,8.02
2023-05-11T22:42:48.534Z,8.04
2023-05-11T22:45:16.511Z,8.09
2023-05-11T22:47:43.566Z,8.11
2023-05-11T22:50:12.220Z,8.14
2023-05-11T22:52:39.507Z,8.15
2023-05-11T22:55:07.200Z,8.15
2023-05-11T22:57:34.138Z,8.13
2023-05-11T23:00:01.294Z,8.12
2023-05-11T23:02:29.805Z,8.07
2023-05-11T23:04:57.735Z,8.01
2023-05-11T23:07:24.571Z,7.96
2023-05-11T23:09:52.972Z,7.93
2023-05-11T23:12:20.043Z,7.88
2023-05-11T23:14:47.456Z,7.86
2023-05-11T23:19:41.858Z,7.82
2023-05-11T23:22:08.866Z,7.81
2023-05-11T23:24:36.198Z,7.80
2023-05-11T23:27:03.509Z,7.81
2023-05-11T23:29:30.721Z,7.79
2023-05-11T23:31:57.594Z,7.78
2023-05-11T23:34:24.726Z,7.75
2023-05-11T23:36:51.745Z,7.72
2023-05-11T23:39:19.226Z,7.72
2023-05-11T23:42:01.610Z,7.67
2023-05-11T23:44:28.807Z,7.68
2023-05-11T23:46:55.737Z,7.69
2023-05-11T23:49:23.016Z,7.68
2023-05-11T23:51:49.937Z,7.66
2023-05-11T23:54:17.118Z,7.63
2023-05-11T23:56:44.694Z,7.61
2023-05-11T23:59:11.832Z,7.57
